Decoded Metar for UKLI (IVANO-FRANKIVSK in UKRAINE) (IATA:N/A) | Meteo·Mobile Aviation Weather
aviador You're here:

UKLI Decoded Metar

IVANO-FRANKIVSK in UKRAINE
Report Time2018-08-20 18:30:00
UTC Time2018-08-20 18:44:58
Flight Rules mvfr MVFR
Wind200° at 4 kt
W.Decomp.*RWY 28: 0.5 kt HW 4 kt LCW
W.Rank200° ranks 27
Current wind is below 200° avg. (5.1)
Visibility6000 m
Phenomena:N/A
Clouds:N/A
Expected CloudBase > 1,200 ft AGL from Temp-Dew spread
CeilingNone
Temp20°C (ISA +7)
Dew Point17°C (83% RH)
QNH1016 hPa
Density Alt1,877 ft
Elevation919 ft
Report Wrong Elevation
Raw Report
UKLI 201830Z 20002MPS 6000 NSC 20/17 Q1016 R28/090070 NOSIG=

Extra information for UKLI:More info

Metar Taf Metar & Taf Last 4 Metars F.Rules Stats Wind Profile Meteogram Temp Stats Airport Information Weather charts Add Link Nearby VenuesMetar ALERT Operation Metar Decoded Social comments